Pagrindinis puslapis
METAR-TAF:

METAR-TAF

Oro uostai :

Kvala Terenganu, Malaizija

platuma: 05-22-53N, ilguma: 103-06-17E, Aukštis: 6 m

Dabartinis oras

Ataskaita buvo paskelbta 42 minutes, ne 10:00 UTC
Vėjas 6 kt iš Šiaurės, svyruoja nuo Šiaurės/Šiaurės Vakarų ir Šiaurės Rytų
Temperatūra 28°C
Drėgmė 74%
Slėgis 1010 hPa
Matomumas 10 km arba daugiau
Mažai debesys ne aukštis 1800 ft

METAR: WMKN 061000Z 35006KT 330V040 9999 FEW018 28/23 Q1010

Laikas: 18:42 (10:42 UTC)

Prognozė

Ataskaita buvo paskelbta 5 valandos ir 42 minutes, ne 05:00 UTC
Prognozė galioja nuo 06 metu 06 UTC su 07 metu 06 UTC
Vėjas 6 kt iš Šiaurės/Šiaurės Rytų
Matomumas 10 km arba daugiau
Išsisklaidę debesys ne aukštis 1800 ft
Tapsmas
nuo 06 metu 09 UTC su 06 metu 10 UTC
Vėjas 3 kt nuo kintamojo kryptimis
Mažai debesys ne aukštis 2000 ft

TAF: WMKN 060500Z 0606/0706 02006KT 9999 SCT018 BECMG 0609/0610 VRB03KT FEW020

Orai ataskaitas ir orų prognozės (METAR, TAF).

turimą stotys yra geltonos ir raudonos taškus žemėlapyje.

Perkelti pele per norėdami pamatyti stoties vardą.

Tada spustelėkite, norėdami matyti oro stebėjimo ir prognozės.

Norėdami pakeisti žemėlapį: spustelėkite ant žalios mygtukų su juodo kryžiaus žemyn,; žalią mygtuką su brūkšneliu, jei norite nutolinti; arba žalių rodyklių gretimoms žemėlapius.


METAR-TAF: